CheckWX is a tool to help pilots better visualize weather data.  It is not intended as a substitute for an official pre-flight weather briefing.

04:16:25 UTC

ENBS METAR
Båtsfjord Airport
Båtsfjord, Norway
Current

6 hours ago

ENBS 242150Z 15004KT 9999 FEW015 SCT032 M09/M10 Q0984
Observed
Jan-24 @ 21:50 UTC
Wind
  • 150° at 4 KTS
Visibility
10,000+ meters
Flight Rules
VFR
Cloud Levels
  • Few at 1,500' AGL
  • Scattered at 3,200' AGL
Temperature
-9°C / 16°F
Dewpoint
-10°C / 14°F
Humidity
93%
Altimeter
29.06" Hg
Pressure
983.92 hPa
Previous

7 hours ago

ENBS 242120Z 13004KT 9999 FEW015 SCT032 M09/M10 Q0984
Observed
Jan-24 @ 21:20 UTC
Wind
  • 130° at 4 KTS
Visibility
10,000+ meters
Flight Rules
VFR
Cloud Levels
  • Few at 1,500' AGL
  • Scattered at 3,200' AGL
Temperature
-9°C / 16°F
Dewpoint
-10°C / 14°F
Humidity
93%
Altimeter
29.06" Hg
Pressure
983.92 hPa
Previous

7 hours ago

ENBS 242050Z 00000KT 9999 FEW015 SCT039 M09/M11 Q0984
Observed
Jan-24 @ 20:50 UTC
Visibility
10,000+ meters
Flight Rules
VFR
Cloud Levels
  • Few at 1,500' AGL
  • Scattered at 3,900' AGL
Temperature
-9°C / 16°F
Dewpoint
-11°C / 12°F
Humidity
86%
Altimeter
29.06" Hg
Pressure
983.92 hPa